createdAt,value
2019-03-25T00:01:24.991Z,5.50
2019-03-25T00:03:57.365Z,5.60
2019-03-25T00:06:29.607Z,5.70
2019-03-25T00:09:05.379Z,5.70
2019-03-25T00:11:37.159Z,5.70
2019-03-25T00:14:11.336Z,5.70
2019-03-25T00:16:43.357Z,5.70
2019-03-25T00:19:15.771Z,5.70
2019-03-25T00:21:47.915Z,5.50
2019-03-25T00:24:20.138Z,5.40
2019-03-25T00:26:52.359Z,5.20
2019-03-25T00:29:24.759Z,5.10
2019-03-25T00:31:56.851Z,4.90
2019-03-25T00:34:29.131Z,4.90
2019-03-25T00:37:01.264Z,4.90
2019-03-25T00:39:33.535Z,4.80
2019-03-25T00:42:05.893Z,4.70
2019-03-25T00:44:38.085Z,4.50
2019-03-25T00:47:10.217Z,4.50
2019-03-25T00:49:43.133Z,4.50
2019-03-25T00:52:15.393Z,4.50
2019-03-25T00:54:50.126Z,4.40
2019-03-25T00:57:21.203Z,4.40
2019-03-25T00:59:53.416Z,4.40
2019-03-25T01:02:25.479Z,4.40
2019-03-25T01:04:57.725Z,4.40
2019-03-25T01:07:29.765Z,4.20
2019-03-25T01:10:02.175Z,4.20
2019-03-25T01:12:34.405Z,4.20
2019-03-25T01:15:07.039Z,4.20
2019-03-25T01:17:39.086Z,4.10
2019-03-25T01:20:12.801Z,4.10
2019-03-25T01:22:44.879Z,4.10
2019-03-25T01:25:17.007Z,4.00
2019-03-25T01:27:49.072Z,4.00
2019-03-25T01:30:21.069Z,4.00
2019-03-25T01:32:53.139Z,3.90
2019-03-25T01:35:26.259Z,3.80
2019-03-25T01:37:58.409Z,3.70
2019-03-25T01:40:30.674Z,3.70
2019-03-25T01:43:02.633Z,3.70
2019-03-25T01:45:34.777Z,3.70
2019-03-25T01:48:06.965Z,3.60
2019-03-25T01:50:40.099Z,3.50
2019-03-25T01:53:12.103Z,3.50
2019-03-25T01:55:44.218Z,3.60
2019-03-25T01:58:16.057Z,3.60
2019-03-25T02:00:49.046Z,3.40
2019-03-25T02:03:21.015Z,3.40
2019-03-25T02:05:53.139Z,3.40
2019-03-25T02:08:25.136Z,3.40
2019-03-25T02:10:57.276Z,3.30
2019-03-25T02:13:29.289Z,3.20
2019-03-25T02:16:02.495Z,3.10
2019-03-25T02:18:34.459Z,3.10
2019-03-25T02:21:07.760Z,3.20
2019-03-25T02:23:39.531Z,3.30
2019-03-25T02:26:11.798Z,3.30
2019-03-25T02:28:43.844Z,3.30
2019-03-25T02:31:17.130Z,3.20
2019-03-25T02:33:49.104Z,3.20
2019-03-25T02:36:21.276Z,3.20
2019-03-25T02:38:53.444Z,3.10
2019-03-25T02:41:26.398Z,3.20
2019-03-25T02:43:58.559Z,3.20
2019-03-25T02:46:30.671Z,3.10
2019-03-25T02:49:02.815Z,3.10
2019-03-25T02:51:34.878Z,3.10
2019-03-25T02:54:06.845Z,2.90
2019-03-25T02:56:40.131Z,2.90
2019-03-25T02:59:12.305Z,2.90
2019-03-25T03:01:44.729Z,2.80
2019-03-25T03:04:16.793Z,2.70
2019-03-25T03:06:48.926Z,3.00
2019-03-25T03:09:21.105Z,3.10
2019-03-25T03:11:53.553Z,3.00
2019-03-25T03:14:25.539Z,2.80
2019-03-25T03:16:58.714Z,2.80
2019-03-25T03:19:30.774Z,2.80
2019-03-25T03:22:02.938Z,2.80
2019-03-25T03:24:34.867Z,2.80
2019-03-25T03:27:07.188Z,2.70
2019-03-25T03:29:39.325Z,2.60
2019-03-25T03:32:12.408Z,2.60
2019-03-25T03:34:44.411Z,2.50
2019-03-25T03:37:17.609Z,2.30
2019-03-25T03:39:49.627Z,2.30
2019-03-25T03:42:21.700Z,2.30
2019-03-25T03:45:12.361Z,2.20
2019-03-25T03:47:44.512Z,2.20
2019-03-25T03:50:25.233Z,2.20
2019-03-25T03:52:58.875Z,2.20
2019-03-25T03:55:32.160Z,2.10
2019-03-25T03:58:04.983Z,2.10
2019-03-25T04:00:37.712Z,2.10
2019-03-25T04:03:09.903Z,2.10
2019-03-25T04:05:41.795Z,2.00
2019-03-25T04:08:14.705Z,1.90
2019-03-25T04:10:46.735Z,1.80
2019-03-25T04:13:18.889Z,1.80
2019-03-25T04:15:51.085Z,1.90
2019-03-25T04:18:23.667Z,2.00
2019-03-25T04:20:55.635Z,2.10
2019-03-25T04:23:27.674Z,2.20
2019-03-25T04:25:59.602Z,2.20
2019-03-25T04:28:31.734Z,2.40
2019-03-25T04:31:04.018Z,2.50
2019-03-25T04:33:36.313Z,2.50
2019-03-25T04:36:08.374Z,2.50
2019-03-25T04:38:40.579Z,2.90
2019-03-25T04:41:12.581Z,3.00
2019-03-25T04:43:45.651Z,3.50
2019-03-25T04:46:17.588Z,4.40
2019-03-25T04:48:50.973Z,4.90
2019-03-25T04:51:22.990Z,5.50
2019-03-25T04:53:55.034Z,5.80
2019-03-25T04:56:27.028Z,5.20
2019-03-25T04:58:59.525Z,4.70
2019-03-25T05:01:31.590Z,5.00
2019-03-25T05:04:03.603Z,5.40
2019-03-25T05:06:35.390Z,6.30
2019-03-25T05:09:08.634Z,5.80
2019-03-25T05:11:40.799Z,6.90
2019-03-25T05:14:13.971Z,7.10
2019-03-25T05:16:46.042Z,7.40
2019-03-25T05:19:18.530Z,7.50
2019-03-25T05:21:50.611Z,7.70
2019-03-25T05:24:22.957Z,7.50
2019-03-25T05:26:54.674Z,8.30
2019-03-25T05:29:27.309Z,8.10
2019-03-25T05:31:59.311Z,7.80
2019-03-25T05:34:31.170Z,7.30
2019-03-25T05:37:03.098Z,7.70
2019-03-25T05:39:35.137Z,7.30
2019-03-25T05:42:07.110Z,8.20
2019-03-25T05:44:39.055Z,8.70
2019-03-25T05:47:10.960Z,9.20
2019-03-25T05:49:43.769Z,8.80
2019-03-25T05:52:15.736Z,8.40
2019-03-25T05:54:48.050Z,8.90
2019-03-25T05:57:20.290Z,9.30
2019-03-25T05:59:53.390Z,9.00
2019-03-25T06:02:25.360Z,8.50
2019-03-25T06:04:58.473Z,9.40
2019-03-25T06:07:30.593Z,9.80
2019-03-25T06:10:05.015Z,10.40
2019-03-25T06:12:36.972Z,11.60
2019-03-25T06:15:10.639Z,11.10
2019-03-25T06:17:42.880Z,11.30
2019-03-25T06:20:16.168Z,11.70
2019-03-25T06:22:48.358Z,11.80
2019-03-25T06:25:21.392Z,11.50
2019-03-25T06:27:53.630Z,10.90
2019-03-25T06:30:27.055Z,10.90
2019-03-25T06:32:59.326Z,10.70
2019-03-25T06:35:31.502Z,11.20
2019-03-25T06:38:04.150Z,11.80
2019-03-25T06:40:36.236Z,12.80
2019-03-25T06:43:18.827Z,11.20
2019-03-25T06:45:51.025Z,12.50
2019-03-25T06:48:23.096Z,12.80
2019-03-25T06:50:56.210Z,11.80
2019-03-25T06:53:28.409Z,12.10
2019-03-25T06:56:00.894Z,11.70
2019-03-25T06:58:33.125Z,12.70
2019-03-25T07:01:06.044Z,13.10
2019-03-25T07:03:38.369Z,12.50
2019-03-25T07:06:10.628Z,12.30
2019-03-25T07:08:42.732Z,12.20
2019-03-25T07:11:14.952Z,12.50
2019-03-25T07:13:47.276Z,11.90
2019-03-25T07:16:19.602Z,12.90
2019-03-25T07:18:51.486Z,13.20
2019-03-25T07:21:23.636Z,13.50
2019-03-25T07:23:55.813Z,12.20
2019-03-25T07:26:28.083Z,13.20
2019-03-25T07:29:00.237Z,12.60
2019-03-25T07:31:32.368Z,12.90
2019-03-25T07:34:04.294Z,13.50
2019-03-25T07:36:36.371Z,13.30
2019-03-25T07:39:09.632Z,13.70
2019-03-25T07:41:41.748Z,13.50
2019-03-25T07:44:14.737Z,13.80
2019-03-25T07:46:46.700Z,14.30
2019-03-25T07:49:19.761Z,13.90
2019-03-25T07:51:52.047Z,14.10
2019-03-25T07:54:24.022Z,14.50
2019-03-25T07:56:56.192Z,14.70
2019-03-25T07:59:28.239Z,14.90
2019-03-25T08:02:00.512Z,15.30
2019-03-25T08:04:33.052Z,15.40
2019-03-25T08:07:05.090Z,16.10
2019-03-25T08:09:37.056Z,16.20
2019-03-25T08:12:09.181Z,16.20
2019-03-25T08:14:41.201Z,17.40
2019-03-25T08:17:14.277Z,17.80
2019-03-25T08:19:46.488Z,17.10
2019-03-25T08:22:18.621Z,16.40
2019-03-25T08:24:50.757Z,16.30
2019-03-25T08:27:22.931Z,16.60
2019-03-25T08:29:54.818Z,17.00
2019-03-25T08:32:26.882Z,17.30
2019-03-25T08:34:59.057Z,17.00
2019-03-25T08:37:30.917Z,16.90
2019-03-25T08:40:03.875Z,17.40
2019-03-25T08:42:36.089Z,16.30
2019-03-25T08:45:08.490Z,16.90
2019-03-25T08:47:41.520Z,17.30
2019-03-25T08:50:13.975Z,16.80
2019-03-25T08:52:46.276Z,16.30
2019-03-25T08:55:18.672Z,17.30
2019-03-25T08:57:50.854Z,17.70
2019-03-25T09:00:23.264Z,16.60
2019-03-25T09:02:55.405Z,16.30
2019-03-25T09:05:28.217Z,16.60
2019-03-25T09:08:00.592Z,16.70
2019-03-25T09:10:33.069Z,14.90
2019-03-25T09:13:05.309Z,15.90
2019-03-25T09:15:38.619Z,16.60
2019-03-25T09:18:11.383Z,17.20
2019-03-25T09:20:44.794Z,17.50
2019-03-25T09:23:17.991Z,17.70
2019-03-25T09:25:51.600Z,16.20
2019-03-25T09:28:24.753Z,15.70
2019-03-25T09:31:17.884Z,15.90
2019-03-25T09:33:51.437Z,16.90
2019-03-25T09:36:24.164Z,16.80
2019-03-25T09:38:57.294Z,17.30
2019-03-25T09:41:29.687Z,16.80
2019-03-25T09:44:01.861Z,16.50
2019-03-25T09:46:34.090Z,16.80
2019-03-25T09:49:06.236Z,17.00
2019-03-25T09:51:40.694Z,16.30
2019-03-25T09:54:12.918Z,17.00
2019-03-25T09:56:45.430Z,17.60
2019-03-25T09:59:17.492Z,17.20
2019-03-25T10:01:49.762Z,17.10
2019-03-25T10:04:21.861Z,17.50
2019-03-25T10:06:55.183Z,16.90
2019-03-25T10:09:28.240Z,17.60
2019-03-25T10:12:00.447Z,17.60
2019-03-25T10:14:32.590Z,17.50
2019-03-25T10:17:04.822Z,17.70
2019-03-25T10:19:36.912Z,17.80
2019-03-25T10:22:09.211Z,17.50
2019-03-25T10:24:41.134Z,17.10
2019-03-25T10:27:13.421Z,17.20
2019-03-25T10:29:45.643Z,17.30
2019-03-25T10:32:17.997Z,17.50
2019-03-25T10:34:50.109Z,18.00
2019-03-25T10:37:23.008Z,18.20
2019-03-25T10:39:55.110Z,18.10
2019-03-25T10:42:27.193Z,17.90
2019-03-25T10:45:00.685Z,17.90
2019-03-25T10:47:32.773Z,18.30
2019-03-25T10:50:05.685Z,17.90
2019-03-25T10:52:38.129Z,16.90
2019-03-25T10:55:10.373Z,17.60
2019-03-25T10:57:42.382Z,18.20
2019-03-25T11:00:15.245Z,18.70
2019-03-25T11:02:47.566Z,18.20
2019-03-25T11:05:19.675Z,18.40
2019-03-25T11:07:51.992Z,18.70
2019-03-25T11:10:25.817Z,18.30
2019-03-25T11:12:58.258Z,19.00
2019-03-25T11:15:31.354Z,19.10
2019-03-25T11:18:05.640Z,18.70
2019-03-25T11:20:37.446Z,18.70
2019-03-25T11:23:10.078Z,18.70
2019-03-25T11:25:42.315Z,18.50
2019-03-25T11:28:14.300Z,18.50
2019-03-25T11:30:57.661Z,19.30
2019-03-25T11:33:29.767Z,18.70
2019-03-25T11:36:02.903Z,18.90
2019-03-25T11:38:35.395Z,19.10
2019-03-25T11:41:07.671Z,19.00
2019-03-25T11:43:39.838Z,18.90
2019-03-25T11:46:12.994Z,18.10
2019-03-25T11:48:45.320Z,18.30
2019-03-25T11:51:17.477Z,18.70
2019-03-25T11:53:49.710Z,18.70
2019-03-25T11:56:23.268Z,18.70
2019-03-25T11:58:55.437Z,19.10
2019-03-25T12:01:27.492Z,19.50
2019-03-25T12:03:59.830Z,19.20
2019-03-25T12:06:33.039Z,19.70
2019-03-25T12:09:23.858Z,19.40
2019-03-25T12:11:56.811Z,18.90
2019-03-25T12:14:28.837Z,19.20
2019-03-25T12:17:01.049Z,19.70
2019-03-25T12:19:33.242Z,20.20
2019-03-25T12:22:05.972Z,19.90
2019-03-25T12:24:38.078Z,19.60
2019-03-25T12:27:10.070Z,19.50
2019-03-25T12:29:43.413Z,19.60
2019-03-25T12:32:15.838Z,19.50
2019-03-25T12:34:48.072Z,18.90
2019-03-25T12:37:20.326Z,19.00
2019-03-25T12:39:53.356Z,18.90
2019-03-25T12:42:25.605Z,18.80
2019-03-25T12:44:57.701Z,19.10
2019-03-25T12:47:30.721Z,19.20
2019-03-25T12:50:02.931Z,18.90
2019-03-25T12:52:35.022Z,18.90
2019-03-25T12:55:07.519Z,19.00
2019-03-25T12:57:39.609Z,18.50
2019-03-25T13:00:13.001Z,18.70
2019-03-25T13:02:45.091Z,18.40
2019-03-25T13:05:17.100Z,18.60
2019-03-25T13:07:49.317Z,18.30
2019-03-25T13:10:21.539Z,18.40
2019-03-25T13:12:53.912Z,18.30
2019-03-25T13:15:26.194Z,18.10
2019-03-25T13:17:58.338Z,18.20
2019-03-25T13:20:30.729Z,18.20
2019-03-25T13:23:02.970Z,18.10
2019-03-25T13:25:35.446Z,18.10
2019-03-25T13:28:07.389Z,18.20
2019-03-25T13:30:39.425Z,18.30
2019-03-25T13:33:11.617Z,18.20
2019-03-25T13:35:44.893Z,18.00
2019-03-25T13:38:16.732Z,18.10
2019-03-25T13:40:48.922Z,17.90
2019-03-25T13:43:20.940Z,18.10
2019-03-25T13:45:53.025Z,18.10
2019-03-25T13:48:25.136Z,18.10
2019-03-25T13:50:57.371Z,18.00
2019-03-25T13:53:29.177Z,18.10
2019-03-25T13:56:01.171Z,18.10
2019-03-25T13:58:33.200Z,17.90
2019-03-25T14:01:05.646Z,17.70
2019-03-25T14:03:37.675Z,17.70
2019-03-25T14:06:09.863Z,17.80
2019-03-25T14:08:41.926Z,17.70
2019-03-25T14:11:14.106Z,17.60
2019-03-25T14:13:49.428Z,17.60
2019-03-25T14:16:20.806Z,17.70
2019-03-25T14:18:54.604Z,17.60
2019-03-25T14:21:27.052Z,17.70
2019-03-25T14:23:59.709Z,17.80
2019-03-25T14:26:31.846Z,17.60
2019-03-25T14:29:04.019Z,17.50
2019-03-25T14:31:36.628Z,17.40
2019-03-25T14:34:10.058Z,17.30
2019-03-25T14:36:42.222Z,17.30
2019-03-25T14:39:14.313Z,17.30
2019-03-25T14:41:46.524Z,17.30
2019-03-25T14:44:18.550Z,17.20
2019-03-25T14:46:50.588Z,17.20
2019-03-25T14:49:22.787Z,16.90
2019-03-25T14:51:55.082Z,16.70
2019-03-25T14:54:30.123Z,16.70
2019-03-25T14:57:05.059Z,16.40
2019-03-25T14:59:39.778Z,16.30
2019-03-25T15:02:14.435Z,16.10
2019-03-25T15:04:49.130Z,16.00
2019-03-25T15:07:22.014Z,16.00
2019-03-25T15:10:06.975Z,15.70
2019-03-25T15:12:39.132Z,15.60
2019-03-25T15:15:12.512Z,15.40
2019-03-25T15:17:44.877Z,15.20
2019-03-25T15:20:17.164Z,15.00
2019-03-25T15:22:49.877Z,15.00
2019-03-25T15:25:22.025Z,14.80
2019-03-25T15:27:54.225Z,14.70
2019-03-25T15:30:35.561Z,14.60
2019-03-25T15:32:59.964Z,14.50
2019-03-25T15:35:33.397Z,14.50
2019-03-25T15:38:10.982Z,14.20
2019-03-25T15:40:43.227Z,14.10
2019-03-25T15:43:16.177Z,14.00
2019-03-25T15:45:48.610Z,13.90
2019-03-25T15:48:21.703Z,13.70
2019-03-25T15:50:53.910Z,13.50
2019-03-25T15:53:28.533Z,13.50
2019-03-25T15:55:59.839Z,13.30
2019-03-25T15:58:33.048Z,13.20
2019-03-25T16:01:05.499Z,13.10
2019-03-25T16:03:37.549Z,12.90
2019-03-25T16:06:09.862Z,12.80
2019-03-25T16:08:41.916Z,12.70
2019-03-25T16:11:13.976Z,12.50
2019-03-25T16:13:46.067Z,12.40
2019-03-25T16:16:28.560Z,12.20
2019-03-25T16:19:00.460Z,12.10
2019-03-25T16:21:33.069Z,11.90
2019-03-25T16:24:06.262Z,11.90
2019-03-25T16:26:38.188Z,11.70
2019-03-25T16:29:10.365Z,11.70
2019-03-25T16:31:42.379Z,11.60
2019-03-25T16:34:14.528Z,11.50
2019-03-25T16:36:46.438Z,11.40
2019-03-25T16:39:18.675Z,11.20
2019-03-25T16:41:51.021Z,11.20
2019-03-25T16:44:23.965Z,11.10
2019-03-25T16:46:56.572Z,11.10
2019-03-25T16:49:28.688Z,11.00
2019-03-25T16:52:00.713Z,10.90
2019-03-25T16:54:32.942Z,10.80
2019-03-25T16:57:05.175Z,10.80
2019-03-25T16:59:37.196Z,10.80
2019-03-25T17:02:09.609Z,10.60
2019-03-25T17:04:41.925Z,10.60
2019-03-25T17:07:14.208Z,10.50
2019-03-25T17:09:46.165Z,10.40
2019-03-25T17:12:18.306Z,10.40
2019-03-25T17:14:50.558Z,10.40
2019-03-25T17:17:22.767Z,10.40
2019-03-25T17:19:54.914Z,10.30
2019-03-25T17:22:27.152Z,10.20
2019-03-25T17:24:59.258Z,10.10
2019-03-25T17:27:31.525Z,10.10
2019-03-25T17:30:03.737Z,10.10
2019-03-25T17:32:36.148Z,10.10
2019-03-25T17:35:09.912Z,10.00
2019-03-25T17:37:44.066Z,10.00
2019-03-25T17:40:18.148Z,9.90
2019-03-25T17:42:51.880Z,9.80
2019-03-25T17:45:26.545Z,9.70
2019-03-25T17:48:00.930Z,9.60
2019-03-25T17:50:36.720Z,9.50
2019-03-25T17:53:08.883Z,9.40
2019-03-25T17:55:41.174Z,9.30
2019-03-25T17:58:13.446Z,9.20
2019-03-25T18:01:17.531Z,9.20
2019-03-25T18:03:49.705Z,9.10
2019-03-25T18:06:21.830Z,9.00
2019-03-25T18:08:54.009Z,8.80
2019-03-25T18:11:26.141Z,8.80
2019-03-25T18:13:58.194Z,8.70
2019-03-25T18:16:30.691Z,8.60
2019-03-25T18:19:02.575Z,8.40
2019-03-25T18:21:34.654Z,8.30
2019-03-25T18:24:07.147Z,8.30
2019-03-25T18:26:40.241Z,8.30
2019-03-25T18:29:12.282Z,8.40
2019-03-25T18:31:44.440Z,8.40
2019-03-25T18:34:17.484Z,8.50
2019-03-25T18:36:51.232Z,8.50
2019-03-25T18:39:25.621Z,8.50
2019-03-25T18:41:59.767Z,8.50
2019-03-25T18:44:32.649Z,8.20
2019-03-25T18:47:05.972Z,8.10
2019-03-25T18:49:39.535Z,8.00
2019-03-25T18:52:11.631Z,7.90
2019-03-25T18:54:43.782Z,7.90
2019-03-25T18:57:17.158Z,7.90
2019-03-25T18:59:49.489Z,7.80
2019-03-25T19:02:22.302Z,7.80
2019-03-25T19:04:55.044Z,7.80
2019-03-25T19:07:28.301Z,7.70
2019-03-25T19:10:01.595Z,7.60
2019-03-25T19:12:34.488Z,7.60
2019-03-25T19:15:06.760Z,7.50
2019-03-25T19:17:38.807Z,7.50
2019-03-25T19:20:12.087Z,7.50
2019-03-25T19:22:44.391Z,7.50
2019-03-25T19:25:17.160Z,7.60
2019-03-25T19:27:50.658Z,7.60
2019-03-25T19:30:24.804Z,7.70
2019-03-25T19:32:57.945Z,7.70
2019-03-25T19:35:30.388Z,7.60
2019-03-25T19:38:03.797Z,7.50
2019-03-25T19:40:36.007Z,7.40
2019-03-25T19:43:08.258Z,7.30
2019-03-25T19:45:40.571Z,7.10
2019-03-25T19:48:13.035Z,7.10
2019-03-25T19:50:45.103Z,6.90
2019-03-25T19:53:19.662Z,6.70
2019-03-25T19:55:52.141Z,6.70
2019-03-25T19:58:24.448Z,6.60
2019-03-25T20:00:56.497Z,6.50
2019-03-25T20:03:29.687Z,6.40
2019-03-25T20:06:01.933Z,6.40
2019-03-25T20:08:34.369Z,6.20
2019-03-25T20:11:06.578Z,6.10
2019-03-25T20:13:38.782Z,5.90
2019-03-25T20:16:11.868Z,6.00
2019-03-25T20:18:44.199Z,6.00
2019-03-25T20:21:16.542Z,6.00
2019-03-25T20:23:50.428Z,5.90
2019-03-25T20:26:22.743Z,6.00
2019-03-25T20:28:54.978Z,6.10
2019-03-25T20:31:27.167Z,6.10
2019-03-25T20:34:10.459Z,6.10
2019-03-25T20:36:32.940Z,6.20
2019-03-25T20:39:07.592Z,6.20
2019-03-25T20:41:39.681Z,6.00
2019-03-25T20:44:12.011Z,5.90
2019-03-25T20:46:44.108Z,5.90
2019-03-25T20:49:16.427Z,5.90
2019-03-25T20:51:48.409Z,5.90
2019-03-25T20:54:20.474Z,5.80
2019-03-25T20:57:11.133Z,5.80
2019-03-25T20:59:43.227Z,5.80
2019-03-25T21:02:15.302Z,5.70
2019-03-25T21:04:48.618Z,5.60
2019-03-25T21:07:20.810Z,5.60
2019-03-25T21:09:52.812Z,5.60
2019-03-25T21:12:24.618Z,5.70
2019-03-25T21:14:56.896Z,5.80
2019-03-25T21:17:29.213Z,5.80
2019-03-25T21:20:01.647Z,5.80
2019-03-25T21:22:33.610Z,5.80
2019-03-25T21:25:08.107Z,5.80
2019-03-25T21:27:40.224Z,5.80
2019-03-25T21:30:13.946Z,5.80
2019-03-25T21:32:57.553Z,5.90
2019-03-25T21:35:22.015Z,5.90
2019-03-25T21:37:54.441Z,5.90
2019-03-25T21:40:27.240Z,5.80
2019-03-25T21:42:59.563Z,5.60
2019-03-25T21:45:31.638Z,5.50
2019-03-25T21:48:03.597Z,5.40
2019-03-25T21:50:35.884Z,5.30
2019-03-25T21:53:07.985Z,5.20
2019-03-25T21:55:40.306Z,5.20
2019-03-25T21:58:12.474Z,5.10
2019-03-25T22:00:44.543Z,5.00
2019-03-25T22:03:16.664Z,4.90
2019-03-25T22:05:48.624Z,4.90
2019-03-25T22:08:20.655Z,4.90
2019-03-25T22:10:52.834Z,4.90
2019-03-25T22:13:24.798Z,4.80
2019-03-25T22:15:56.859Z,4.80
2019-03-25T22:18:30.684Z,4.70
2019-03-25T22:21:02.769Z,4.70
2019-03-25T22:23:34.787Z,4.60
2019-03-25T22:26:07.076Z,4.60
2019-03-25T22:28:39.199Z,4.60
2019-03-25T22:31:11.959Z,4.60
2019-03-25T22:33:43.926Z,4.60
2019-03-25T22:36:16.061Z,4.60
2019-03-25T22:38:48.207Z,4.60
2019-03-25T22:41:20.707Z,4.50
2019-03-25T22:43:52.715Z,4.60
2019-03-25T22:46:25.140Z,4.50
2019-03-25T22:48:57.459Z,4.60
2019-03-25T22:51:29.732Z,4.50
2019-03-25T22:54:01.754Z,4.60
2019-03-25T22:56:34.069Z,4.60
2019-03-25T22:59:06.225Z,4.60
2019-03-25T23:01:39.154Z,4.70
2019-03-25T23:04:11.212Z,4.60
2019-03-25T23:06:43.491Z,4.60
2019-03-25T23:09:15.734Z,4.40
2019-03-25T23:11:48.223Z,4.40
2019-03-25T23:14:20.260Z,4.50
2019-03-25T23:16:52.406Z,4.50
2019-03-25T23:19:24.424Z,4.50
2019-03-25T23:21:57.306Z,4.50
2019-03-25T23:24:29.211Z,4.30
2019-03-25T23:27:01.475Z,4.30
2019-03-25T23:29:33.606Z,4.30
2019-03-25T23:32:05.671Z,4.30
2019-03-25T23:34:37.494Z,4.40
2019-03-25T23:37:09.945Z,4.40
2019-03-25T23:39:41.860Z,4.40
2019-03-25T23:42:15.436Z,4.40
2019-03-25T23:44:47.159Z,4.40
2019-03-25T23:47:19.138Z,4.50
2019-03-25T23:49:51.142Z,4.50
2019-03-25T23:52:23.259Z,4.50
2019-03-25T23:54:54.980Z,4.60
2019-03-25T23:57:27.047Z,4.60
2019-03-25T23:59:58.851Z,4.50
